Time;durP1;ratioP1;P1;durP2;ratioP2;P2;SDS_P1;SDS_P2;PMS_P1;PMS_P2;Temp;Humidity;BMP_temperature;BMP_pressure;BME280_temperature;BME280_humidity;BME280_pressure;Samples;Min_cycle;Max_cycle;Signal;HPM_P1;HPM_P2
2024/03/10 00:00:16;;;;;;;;;;;5.20;76.70;;;;;;6337002;22;19987;-79
2024/03/10 00:02:43;;;;;;;;;;;5.10;76.20;;;;;;6337622;22;19982;-79
2024/03/10 00:05:12;;;;;;;;;;;5.10;76.80;;;;;;6310497;22;19948;-79
2024/03/10 00:07:41;;;;;;;;;;;5.10;77.00;;;;;;6310818;22;19919;-79
2024/03/10 00:10:10;;;;;;;;;;;5.00;76.50;;;;;;6310586;22;19918;-79
2024/03/10 00:12:37;;;;;;;;;;;4.90;76.70;;;;;;6310770;22;19942;-79
2024/03/10 00:15:04;;;;;;;;;;;4.90;77.50;;;;;;6337706;22;20256;-78
2024/03/10 00:17:31;;;;;;;;;;;4.80;77.40;;;;;;6310589;22;19977;-78
2024/03/10 00:19:58;;;;;;;;;;;4.70;77.20;;;;;;6310391;22;19918;-79
2024/03/10 00:22:25;;;;;;;;;;;4.60;77.70;;;;;;6310049;22;20240;-79
2024/03/10 00:24:54;;;;;;;;;;;4.60;78.50;;;;;;6310750;22;19923;-78
2024/03/10 00:27:21;;;;;;;;;;;4.60;78.90;;;;;;6309949;22;19926;-79
2024/03/10 00:29:48;;;;;;;;;;;4.50;78.60;;;;;;6310433;22;19922;-80
2024/03/10 00:32:15;;;;;;;;;;;4.40;78.80;;;;;;6310315;22;19945;-79
2024/03/10 00:34:42;;;;;;;;;;;4.40;79.00;;;;;;6337490;22;19930;-78
2024/03/10 00:37:10;;;;;;;;;;;4.40;79.60;;;;;;6310260;22;20353;-77
2024/03/10 00:39:37;;;;;;;;;;;4.40;80.00;;;;;;6310223;22;20288;-78
2024/03/10 00:42:07;;;;;;;;;;;4.30;79.50;;;;;;6310350;22;19919;-78
2024/03/10 00:44:34;;;;;;;;;;;4.30;79.90;;;;;;6337229;22;19923;-79
2024/03/10 00:47:03;;;;;;;;;;;4.30;80.00;;;;;;6311899;22;20326;-78
2024/03/10 00:49:30;;;;;;;;;;;4.20;80.80;;;;;;6339157;22;19930;-78
2024/03/10 00:51:57;;;;;;;;;;;4.20;80.60;;;;;;6311337;22;19919;-78
2024/03/10 00:54:24;;;;;;;;;;;4.10;80.60;;;;;;6312609;22;19918;-79
2024/03/10 00:56:51;;;;;;;;;;;4.10;80.40;;;;;;6338319;22;19919;-79
2024/03/10 00:59:17;;;;;;;;;;;4.00;79.80;;;;;;6339081;22;19919;-79
2024/03/10 01:01:44;;;;;;;;;;;3.90;79.40;;;;;;6312862;22;19930;-78
2024/03/10 01:04:11;;;;;;;;;;;3.90;80.00;;;;;;6313110;22;19954;-78
2024/03/10 01:06:38;;;;;;;;;;;3.80;80.20;;;;;;6312334;22;20289;-78
2024/03/10 01:09:08;;;;;;;;;;;3.80;80.40;;;;;;6311970;22;19918;-79
2024/03/10 01:11:37;;;;;;;;;;;3.80;81.10;;;;;;6312197;22;19930;-79
2024/03/10 01:14:05;;;;;;;;;;;3.70;81.20;;;;;;6312339;22;19925;-78
2024/03/10 01:16:32;;;;;;;;;;;3.70;81.10;;;;;;6312168;22;20308;-78
2024/03/10 01:19:01;;;;;;;;;;;3.70;81.30;;;;;;6312106;22;19919;-79
2024/03/10 01:21:28;;;;;;;;;;;3.70;81.00;;;;;;6312038;22;19919;-79
2024/03/10 01:23:58;;;;;;;;;;;3.60;81.00;;;;;;6339198;22;19983;-79
2024/03/10 01:26:24;;;;;;;;;;;3.60;82.10;;;;;;6312575;22;19922;-78
2024/03/10 01:28:51;;;;;;;;;;;3.60;82.00;;;;;;6339330;22;20020;-79
2024/03/10 01:31:18;;;;;;;;;;;3.50;82.60;;;;;;6312731;22;19961;-79
2024/03/10 01:33:45;;;;;;;;;;;3.40;82.10;;;;;;6339480;22;19930;-79
2024/03/10 01:36:13;;;;;;;;;;;3.40;82.00;;;;;;6312742;22;20030;-79
2024/03/10 01:38:39;;;;;;;;;;;3.40;82.20;;;;;;6312674;22;19922;-79
2024/03/10 01:41:07;;;;;;;;;;;3.40;82.30;;;;;;6312016;22;19923;-79
2024/03/10 01:43:33;;;;;;;;;;;3.30;82.60;;;;;;6311866;22;19930;-79
2024/03/10 01:46:06;;;;;;;;;;;3.30;82.30;;;;;;6312461;22;20399;-78
2024/03/10 01:48:35;;;;;;;;;;;3.30;82.50;;;;;;6311879;22;20296;-79
2024/03/10 01:51:02;;;;;;;;;;;3.30;82.50;;;;;;6311912;22;19948;-79
2024/03/10 01:53:31;;;;;;;;;;;3.40;82.60;;;;;;6338485;22;19991;-79
2024/03/10 01:55:59;;;;;;;;;;;3.30;82.50;;;;;;6338270;22;19922;-79
2024/03/10 01:58:27;;;;;;;;;;;3.40;82.60;;;;;;6311294;22;19918;-78
2024/03/10 02:00:54;;;;;;;;;;;3.30;82.80;;;;;;6338820;22;19926;-79
2024/03/10 02:03:22;;;;;;;;;;;3.30;82.70;;;;;;6338331;22;19942;-79
2024/03/10 02:05:49;;;;;;;;;;;3.30;82.70;;;;;;6338702;22;19972;-78
2024/03/10 02:08:15;;;;;;;;;;;3.30;83.00;;;;;;6311165;22;20244;-78
2024/03/10 02:10:48;;;;;;;;;;;3.30;83.00;;;;;;6338577;22;19960;-78
2024/03/10 02:13:18;;;;;;;;;;;3.30;83.20;;;;;;6338505;22;19965;-78
2024/03/10 02:16:03;;;;;;;;;;;3.20;83.20;;;;;;6311924;22;19945;-79
2024/03/10 02:18:33;;;;;;;;;;;3.20;83.20;;;;;;6311961;22;20265;-78
2024/03/10 02:21:06;;;;;;;;;;;3.20;82.80;;;;;;6312104;22;20337;-78
2024/03/10 02:23:59;;;;;;;;;;;3.20;82.70;;;;;;6337976;22;19930;-78
2024/03/10 02:26:36;;;;;;;;;;;3.10;83.80;;;;;;6253965;22;19931;-78
2024/03/10 02:29:18;;;;;;;;;;;3.10;83.00;;;;;;6306238;22;19919;-78
2024/03/10 02:48:34;;;;;;;;;;;3.10;83.70;;;;;;6272131;22;20215;-78
2024/03/10 02:51:01;;;;;;;;;;;3.10;83.50;;;;;;6307047;22;19919;-78
2024/03/10 02:53:28;;;;;;;;;;;3.10;83.40;;;;;;6306732;22;19919;-78
2024/03/10 02:55:55;;;;;;;;;;;3.10;83.90;;;;;;6307038;22;19953;-78
2024/03/10 02:58:22;;;;;;;;;;;3.00;83.80;;;;;;6307053;22;19958;-78
2024/03/10 03:00:48;;;;;;;;;;;3.00;84.10;;;;;;6307411;22;19968;-79
2024/03/10 03:03:15;;;;;;;;;;;3.00;84.00;;;;;;6306830;22;19927;-79
2024/03/10 03:05:42;;;;;;;;;;;3.10;84.40;;;;;;6307038;22;19919;-78
2024/03/10 03:08:09;;;;;;;;;;;3.10;84.70;;;;;;6305344;22;19919;-79
2024/03/10 03:10:36;;;;;;;;;;;3.10;84.80;;;;;;6306114;22;19930;-79
2024/03/10 03:13:03;;;;;;;;;;;3.10;84.50;;;;;;6305779;22;20386;-78
2024/03/10 03:15:30;;;;;;;;;;;3.00;84.70;;;;;;6306938;22;19918;-78
2024/03/10 03:17:57;;;;;;;;;;;3.00;84.70;;;;;;6306098;22;19950;-78
2024/03/10 03:20:26;;;;;;;;;;;3.00;84.50;;;;;;6306917;22;19929;-79
2024/03/10 03:22:53;;;;;;;;;;;3.00;84.60;;;;;;6305644;22;19922;-79
2024/03/10 03:25:20;;;;;;;;;;;3.00;85.00;;;;;;6305550;22;19980;-79
2024/03/10 03:27:48;;;;;;;;;;;3.00;84.60;;;;;;6314575;22;20327;-79
2024/03/10 03:30:18;;;;;;;;;;;3.00;84.40;;;;;;6311089;22;19923;-78
2024/03/10 03:32:45;;;;;;;;;;;3.00;84.60;;;;;;6311500;22;20658;-78
2024/03/10 03:35:18;;;;;;;;;;;3.10;84.80;;;;;;6338275;22;20335;-79
2024/03/10 03:37:48;;;;;;;;;;;3.10;85.40;;;;;;6311163;22;19995;-78
2024/03/10 03:40:16;;;;;;;;;;;3.10;85.10;;;;;;6310931;22;19919;-79
2024/03/10 03:42:43;;;;;;;;;;;3.10;84.90;;;;;;6310997;22;20326;-78
2024/03/10 03:45:10;;;;;;;;;;;3.10;84.90;;;;;;6337576;22;20366;-78
2024/03/10 03:47:37;;;;;;;;;;;3.10;85.50;;;;;;6311312;22;20243;-78
2024/03/10 03:50:04;;;;;;;;;;;3.10;85.30;;;;;;6337902;22;19919;-79
2024/03/10 03:52:31;;;;;;;;;;;3.00;85.30;;;;;;6310823;22;19937;-79
2024/03/10 03:54:59;;;;;;;;;;;3.00;85.60;;;;;;6310885;22;19926;-78
2024/03/10 03:57:26;;;;;;;;;;;3.00;85.80;;;;;;6338102;22;19941;-79
2024/03/10 03:59:55;;;;;;;;;;;3.00;86.00;;;;;;6337930;22;19918;-79
2024/03/10 04:02:25;;;;;;;;;;;3.00;85.60;;;;;;6310585;22;20300;-78
2024/03/10 04:04:54;;;;;;;;;;;3.00;85.70;;;;;;6310939;22;19930;-78
2024/03/10 04:07:21;;;;;;;;;;;3.00;86.20;;;;;;6310939;22;19918;-78
2024/03/10 04:09:48;;;;;;;;;;;3.10;86.20;;;;;;6337970;22;19933;-78
2024/03/10 04:12:14;;;;;;;;;;;3.10;86.00;;;;;;6337706;22;19919;-79
2024/03/10 04:14:41;;;;;;;;;;;3.10;85.70;;;;;;6310426;22;20311;-79
2024/03/10 04:17:08;;;;;;;;;;;3.10;85.70;;;;;;6310783;22;19922;-79
2024/03/10 04:19:38;;;;;;;;;;;3.10;85.40;;;;;;6311012;22;19919;-79
2024/03/10 04:22:09;;;;;;;;;;;3.10;85.10;;;;;;6313217;22;19926;-78
2024/03/10 04:24:39;;;;;;;;;;;3.10;85.30;;;;;;6312910;22;19930;-78
2024/03/10 04:27:09;;;;;;;;;;;3.10;85.20;;;;;;6313180;22;19984;-78
2024/03/10 04:29:36;;;;;;;;;;;3.10;84.90;;;;;;6339819;22;20244;-78
2024/03/10 04:32:06;;;;;;;;;;;3.10;85.00;;;;;;6339419;22;19997;-78
2024/03/10 04:34:34;;;;;;;;;;;3.10;85.20;;;;;;6339883;22;20231;-78
2024/03/10 04:37:01;;;;;;;;;;;3.10;85.30;;;;;;6339817;22;19918;-77
2024/03/10 04:39:28;;;;;;;;;;;3.10;85.30;;;;;;6339476;22;19926;-79
2024/03/10 04:41:55;;;;;;;;;;;3.10;85.80;;;;;;6312494;22;19926;-79
2024/03/10 04:44:22;;;;;;;;;;;3.10;85.40;;;;;;6312796;22;19918;-78
2024/03/10 04:46:49;;;;;;;;;;;3.10;85.50;;;;;;6312521;22;19980;-79
2024/03/10 04:49:17;;;;;;;;;;;3.20;85.70;;;;;;6339829;22;19922;-79
2024/03/10 04:51:44;;;;;;;;;;;3.20;85.60;;;;;;6312720;22;19927;-78
2024/03/10 04:54:11;;;;;;;;;;;3.20;85.30;;;;;;6312334;22;19930;-78
2024/03/10 04:56:40;;;;;;;;;;;3.20;84.90;;;;;;6312862;22;19922;-78
2024/03/10 04:59:07;;;;;;;;;;;3.10;84.80;;;;;;6312520;22;19956;-78
2024/03/10 05:01:34;;;;;;;;;;;3.20;85.50;;;;;;6312182;22;19996;-79
2024/03/10 05:04:01;;;;;;;;;;;3.20;85.60;;;;;;6312161;22;20296;-79
2024/03/10 05:06:30;;;;;;;;;;;3.10;85.40;;;;;;6312773;22;19937;-79
2024/03/10 05:08:58;;;;;;;;;;;3.10;85.70;;;;;;6312312;22;19929;-78
2024/03/10 05:11:25;;;;;;;;;;;3.10;85.60;;;;;;6312549;22;19922;-79
2024/03/10 05:13:51;;;;;;;;;;;3.20;85.70;;;;;;6312307;22;19969;-78
2024/03/10 05:16:18;;;;;;;;;;;3.20;85.60;;;;;;6312329;22;19932;-78
2024/03/10 05:18:46;;;;;;;;;;;3.20;85.70;;;;;;6338924;22;19919;-78
2024/03/10 05:21:13;;;;;;;;;;;3.20;85.60;;;;;;6311971;22;20295;-78
2024/03/10 05:23:40;;;;;;;;;;;3.20;85.80;;;;;;6312174;22;19918;-78
2024/03/10 05:26:06;;;;;;;;;;;3.20;85.80;;;;;;6312010;22;19919;-79
2024/03/10 05:28:33;;;;;;;;;;;3.20;85.50;;;;;;6312017;22;19946;-79
2024/03/10 05:31:00;;;;;;;;;;;3.20;85.80;;;;;;6338757;22;19923;-79
2024/03/10 05:33:27;;;;;;;;;;;3.20;86.40;;;;;;6312192;22;19918;-78
2024/03/10 05:35:56;;;;;;;;;;;3.20;86.50;;;;;;6312305;22;20001;-78
2024/03/10 05:38:23;;;;;;;;;;;3.20;86.00;;;;;;6312169;22;19923;-78
2024/03/10 05:40:52;;;;;;;;;;;3.20;85.70;;;;;;6339742;22;20270;-78
2024/03/10 05:43:19;;;;;;;;;;;3.20;86.00;;;;;;6313018;22;20181;-78
2024/03/10 05:45:46;;;;;;;;;;;3.20;85.90;;;;;;6312267;22;20320;-79
2024/03/10 05:48:18;;;;;;;;;;;3.20;86.00;;;;;;6312302;22;20266;-79
2024/03/10 05:50:45;;;;;;;;;;;3.30;86.10;;;;;;6311982;22;19958;-79
2024/03/10 05:53:12;;;;;;;;;;;3.30;85.70;;;;;;6338291;22;20344;-78
2024/03/10 05:55:41;;;;;;;;;;;3.30;85.90;;;;;;6338877;22;19927;-78
2024/03/10 05:58:08;;;;;;;;;;;3.30;86.40;;;;;;6311780;22;19923;-78
2024/03/10 06:00:36;;;;;;;;;;;3.30;86.20;;;;;;6338490;22;19941;-77
2024/03/10 06:03:03;;;;;;;;;;;3.40;86.00;;;;;;6338073;22;19918;-77
2024/03/10 06:05:30;;;;;;;;;;;3.40;86.00;;;;;;6339105;22;19991;-78
2024/03/10 06:07:57;;;;;;;;;;;3.40;86.00;;;;;;6311970;22;19926;-77
2024/03/10 06:10:24;;;;;;;;;;;3.40;86.00;;;;;;6312267;22;19940;-78
2024/03/10 06:12:51;;;;;;;;;;;3.40;86.40;;;;;;6312430;22;19919;-78
2024/03/10 06:15:19;;;;;;;;;;;3.40;86.20;;;;;;6338924;22;19930;-78
2024/03/10 06:26:04;;;;;;;;;;;3.50;85.70;;;;;;6338855;22;19929;-78
2024/03/10 06:28:33;;;;;;;;;;;3.50;85.60;;;;;;6337923;22;19933;-78
2024/03/10 06:31:00;;;;;;;;;;;3.50;85.30;;;;;;6312291;22;19926;-78
2024/03/10 06:33:26;;;;;;;;;;;3.60;85.80;;;;;;6311716;22;19979;-78
2024/03/10 06:35:53;;;;;;;;;;;3.60;86.10;;;;;;6311451;22;19930;-78
2024/03/10 06:38:22;;;;;;;;;;;3.60;85.80;;;;;;6310698;22;19926;-78
2024/03/10 06:40:49;;;;;;;;;;;3.70;85.90;;;;;;6339090;22;19923;-78
2024/03/10 06:43:16;;;;;;;;;;;3.70;85.80;;;;;;6338435;22;20286;-78
2024/03/10 06:45:44;;;;;;;;;;;3.70;86.30;;;;;;6311609;22;19918;-78
2024/03/10 06:48:13;;;;;;;;;;;3.80;86.40;;;;;;6338010;22;19997;-77
2024/03/10 06:50:40;;;;;;;;;;;3.80;86.10;;;;;;6311582;22;19919;-78
2024/03/10 06:53:08;;;;;;;;;;;3.90;86.00;;;;;;6337553;22;20205;-77
2024/03/10 06:55:36;;;;;;;;;;;3.90;85.40;;;;;;6310638;22;19950;-78
2024/03/10 06:58:03;;;;;;;;;;;4.00;85.40;;;;;;6338475;22;19922;-78
2024/03/10 07:00:32;;;;;;;;;;;4.10;85.70;;;;;;6338145;22;19993;-77
2024/03/10 07:03:01;;;;;;;;;;;4.10;85.20;;;;;;6311324;22;20239;-78
2024/03/10 07:05:28;;;;;;;;;;;4.20;85.20;;;;;;6310852;22;20308;-77
2024/03/10 07:07:55;;;;;;;;;;;4.20;84.90;;;;;;6338442;22;19927;-78
2024/03/10 07:10:22;;;;;;;;;;;4.20;84.60;;;;;;6311728;22;19928;-78
2024/03/10 07:12:49;;;;;;;;;;;4.30;84.30;;;;;;6311250;22;19927;-78
2024/03/10 07:15:15;;;;;;;;;;;4.30;84.30;;;;;;6311407;22;20330;-78
2024/03/10 07:17:42;;;;;;;;;;;4.40;84.70;;;;;;6311147;22;19929;-78
2024/03/10 07:20:10;;;;;;;;;;;4.40;84.50;;;;;;6311926;22;19930;-78
2024/03/10 07:22:38;;;;;;;;;;;4.50;84.30;;;;;;6311504;22;19919;-77
2024/03/10 07:25:10;;;;;;;;;;;4.60;84.30;;;;;;6338246;22;19919;-78
2024/03/10 07:27:37;;;;;;;;;;;4.60;84.20;;;;;;6338276;22;20251;-78
2024/03/10 07:30:04;;;;;;;;;;;4.70;84.00;;;;;;6338566;22;19926;-77
2024/03/10 07:32:31;;;;;;;;;;;4.70;84.10;;;;;;6338863;22;19927;-78
2024/03/10 07:35:00;;;;;;;;;;;4.80;83.80;;;;;;6311758;22;20038;-77
2024/03/10 07:37:27;;;;;;;;;;;4.90;84.10;;;;;;6338349;22;19931;-77
2024/03/10 07:39:55;;;;;;;;;;;4.90;84.00;;;;;;6338394;22;19919;-77
2024/03/10 07:42:23;;;;;;;;;;;5.00;83.80;;;;;;6338280;22;19944;-78
2024/03/10 07:44:50;;;;;;;;;;;5.00;83.80;;;;;;6311083;22;20322;-78
2024/03/10 07:47:18;;;;;;;;;;;5.10;84.30;;;;;;6311180;22;19918;-78
2024/03/10 07:49:45;;;;;;;;;;;5.10;83.50;;;;;;6338377;22;19926;-78
2024/03/10 07:52:12;;;;;;;;;;;5.20;83.40;;;;;;6311137;22;19975;-78
2024/03/10 07:54:41;;;;;;;;;;;5.20;82.90;;;;;;6311009;22;19956;-78
2024/03/10 07:57:08;;;;;;;;;;;5.30;82.90;;;;;;6338105;22;20308;-78
2024/03/10 07:59:35;;;;;;;;;;;5.40;82.90;;;;;;6310571;22;19983;-78
2024/03/10 08:02:03;;;;;;;;;;;5.40;82.80;;;;;;6310500;22;19923;-78
2024/03/10 08:04:30;;;;;;;;;;;5.40;82.90;;;;;;6310828;22;20365;-78
2024/03/10 08:06:59;;;;;;;;;;;5.50;83.00;;;;;;6338370;22;20028;-78
2024/03/10 08:09:29;;;;;;;;;;;5.50;83.00;;;;;;6310948;22;19918;-79
2024/03/10 08:11:55;;;;;;;;;;;5.50;82.70;;;;;;6311227;22;20213;-78
2024/03/10 08:14:23;;;;;;;;;;;5.60;82.80;;;;;;6311163;22;19953;-78
2024/03/10 08:16:52;;;;;;;;;;;5.60;82.80;;;;;;6338006;22;20323;-78
2024/03/10 08:19:20;;;;;;;;;;;5.70;82.80;;;;;;6311532;22;20018;-78
2024/03/10 08:21:47;;;;;;;;;;;5.80;82.70;;;;;;6311359;22;19919;-78
2024/03/10 08:24:14;;;;;;;;;;;5.80;82.50;;;;;;6311295;22;20226;-78
2024/03/10 08:26:41;;;;;;;;;;;5.90;83.00;;;;;;6337709;22;19922;-77
2024/03/10 08:29:08;;;;;;;;;;;6.00;82.30;;;;;;6310818;22;20005;-78
2024/03/10 08:31:35;;;;;;;;;;;6.00;82.00;;;;;;6336489;22;19937;-79
2024/03/10 08:34:02;;;;;;;;;;;6.10;82.00;;;;;;6337856;22;20285;-79
2024/03/10 08:36:29;;;;;;;;;;;6.10;81.80;;;;;;6310676;22;20369;-78
2024/03/10 08:38:56;;;;;;;;;;;6.20;81.50;;;;;;6337192;22;19923;-78
2024/03/10 08:41:23;;;;;;;;;;;6.30;81.40;;;;;;6310386;22;19929;-79
2024/03/10 08:43:50;;;;;;;;;;;6.40;81.30;;;;;;6310109;22;20283;-79
2024/03/10 08:46:16;;;;;;;;;;;6.50;81.00;;;;;;6310434;22;19929;-79
2024/03/10 08:48:44;;;;;;;;;;;6.70;80.80;;;;;;6310485;22;19925;-79
2024/03/10 08:51:12;;;;;;;;;;;6.80;80.40;;;;;;6310383;22;20312;-78
2024/03/10 08:53:40;;;;;;;;;;;6.90;79.70;;;;;;6310657;22;19922;-79
2024/03/10 08:56:07;;;;;;;;;;;7.00;79.30;;;;;;6310952;22;20274;-79
2024/03/10 08:58:34;;;;;;;;;;;7.20;79.10;;;;;;6337707;22;19919;-79
2024/03/10 09:01:04;;;;;;;;;;;7.30;78.80;;;;;;6310498;22;19930;-79
2024/03/10 09:03:32;;;;;;;;;;;7.40;78.40;;;;;;6310540;22;20144;-79
2024/03/10 09:06:00;;;;;;;;;;;7.60;78.10;;;;;;6310729;22;19987;-79
2024/03/10 09:08:27;;;;;;;;;;;7.70;77.50;;;;;;6338664;22;19922;-79
2024/03/10 09:10:55;;;;;;;;;;;7.80;77.50;;;;;;6339528;22;20249;-78
2024/03/10 09:13:33;;;;;;;;;;;8.00;77.30;;;;;;6314437;22;19941;-79
2024/03/10 09:16:01;;;;;;;;;;;8.10;76.80;;;;;;6312598;22;19926;-78
2024/03/10 09:18:28;;;;;;;;;;;8.20;75.80;;;;;;6339534;22;19982;-78
2024/03/10 09:20:57;;;;;;;;;;;8.40;75.40;;;;;;6339589;22;19918;-79
2024/03/10 09:23:25;;;;;;;;;;;8.60;74.80;;;;;;6312490;22;19919;-79
2024/03/10 09:25:54;;;;;;;;;;;8.80;74.30;;;;;;6339042;22;19930;-79
2024/03/10 09:28:22;;;;;;;;;;;9.10;73.70;;;;;;6312138;22;19923;-79
2024/03/10 09:30:49;;;;;;;;;;;9.30;73.00;;;;;;6312969;22;19922;-78
2024/03/10 09:33:18;;;;;;;;;;;9.60;72.30;;;;;;6339105;22;19930;-79
2024/03/10 09:35:45;;;;;;;;;;;10.00;70.50;;;;;;6338851;22;19918;-79
2024/03/10 09:38:12;;;;;;;;;;;10.50;69.50;;;;;;6311808;22;19918;-79
2024/03/10 09:40:42;;;;;;;;;;;11.20;69.20;;;;;;6339069;22;19945;-79
2024/03/10 09:43:11;;;;;;;;;;;13.20;70.30;;;;;;6311986;22;19922;-79
2024/03/10 09:45:47;;;;;;;;;;;15.20;62.20;;;;;;6312295;22;19932;-79
2024/03/10 09:48:15;;;;;;;;;;;16.70;58.20;;;;;;6312064;22;19918;-79
2024/03/10 09:50:48;;;;;;;;;;;19.20;55.80;;;;;;6311618;22;19919;-79
2024/03/10 09:53:17;;;;;;;;;;;21.40;51.30;;;;;;6311827;22;19919;-79
2024/03/10 09:55:51;;;;;;;;;;;23.90;46.40;;;;;;6338681;22;19923;-79
2024/03/10 09:58:22;;;;;;;;;;;25.80;40.90;;;;;;6311425;22;19999;-79
2024/03/10 10:01:11;;;;;;;;;;;26.80;37.10;;;;;;6314459;22;19938;-79
2024/03/10 10:03:44;;;;;;;;;;;27.00;35.00;;;;;;6338707;22;19919;-79
2024/03/10 10:06:13;;;;;;;;;;;26.70;34.30;;;;;;6311947;22;19923;-79
2024/03/10 10:08:40;;;;;;;;;;;26.00;34.70;;;;;;6311670;22;19933;-79
2024/03/10 10:11:08;;;;;;;;;;;26.00;36.20;;;;;;6311389;22;19980;-79
2024/03/10 10:13:38;;;;;;;;;;;26.00;35.70;;;;;;6338309;22;19919;-79
2024/03/10 10:16:08;;;;;;;;;;;26.80;35.50;;;;;;6312263;22;19918;-80
2024/03/10 10:18:38;;;;;;;;;;;27.90;34.90;;;;;;6338703;22;20205;-80
2024/03/10 10:21:22;;;;;;;;;;;29.50;33.10;;;;;;6338607;22;20002;-79
2024/03/10 10:23:49;;;;;;;;;;;30.10;30.60;;;;;;6311716;22;19919;-79
2024/03/10 10:26:17;;;;;;;;;;;30.00;31.10;;;;;;6312859;22;19922;-79
2024/03/10 10:28:44;;;;;;;;;;;31.70;30.40;;;;;;6310233;22;19929;-79
2024/03/10 10:31:15;;;;;;;;;;;33.00;28.40;;;;;;6334043;22;19929;-79
2024/03/10 10:33:45;;;;;;;;;;;33.40;27.10;;;;;;6310234;22;19919;-79
2024/03/10 10:36:13;;;;;;;;;;;33.60;26.50;;;;;;6337981;22;19926;-79
2024/03/10 10:38:40;;;;;;;;;;;32.60;26.70;;;;;;6310194;22;19923;-79
2024/03/10 10:41:07;;;;;;;;;;;32.20;27.30;;;;;;6337844;22;19922;-79
2024/03/10 10:43:37;;;;;;;;;;;32.80;27.60;;;;;;6310422;22;20329;-79
2024/03/10 10:46:10;;;;;;;;;;;33.90;27.40;;;;;;6310819;22;20690;-79
2024/03/10 10:48:37;;;;;;;;;;;35.20;25.70;;;;;;6337991;22;19919;-80
2024/03/10 10:51:08;;;;;;;;;;;35.20;24.60;;;;;;6337045;22;19958;-80
2024/03/10 10:53:43;;;;;;;;;;;34.30;24.80;;;;;;6337557;22;20279;-78
2024/03/10 10:56:14;;;;;;;;;;;33.00;25.50;;;;;;6337601;22;20365;-79
2024/03/10 10:58:48;;;;;;;;;;;31.50;26.40;;;;;;6338261;22;19922;-79
2024/03/10 11:01:16;;;;;;;;;;;30.00;27.40;;;;;;6310690;22;19929;-79
2024/03/10 11:03:44;;;;;;;;;;;29.30;29.70;;;;;;6309886;22;19919;-80
2024/03/10 11:06:15;;;;;;;;;;;29.30;29.90;;;;;;6310814;22;19918;-80
2024/03/10 11:08:43;;;;;;;;;;;29.20;29.50;;;;;;6310746;22;19919;-79
2024/03/10 11:11:34;;;;;;;;;;;30.00;31.10;;;;;;6336846;22;19918;-78
2024/03/10 11:14:03;;;;;;;;;;;31.60;29.00;;;;;;6309398;22;19994;-79
2024/03/10 11:16:34;;;;;;;;;;;33.20;27.80;;;;;;6337728;22;19922;-80
2024/03/10 11:19:10;;;;;;;;;;;35.10;25.60;;;;;;6310455;22;20283;-80
2024/03/10 11:21:39;;;;;;;;;;;35.20;25.20;;;;;;6337107;22;19919;-79
2024/03/10 11:24:14;;;;;;;;;;;36.70;24.70;;;;;;6337452;22;19923;-80
2024/03/10 11:26:41;;;;;;;;;;;38.30;22.80;;;;;;6310654;22;19926;-80
2024/03/10 11:29:22;;;;;;;;;;;39.40;21.90;;;;;;6336920;22;19922;-79
2024/03/10 11:31:50;;;;;;;;;;;39.50;21.20;;;;;;6310096;22;19919;-80
2024/03/10 11:34:17;;;;;;;;;;;38.80;21.00;;;;;;6336806;22;19919;-80
2024/03/10 11:36:46;;;;;;;;;;;37.50;21.40;;;;;;6337206;22;19923;-79
2024/03/10 11:39:19;;;;;;;;;;;36.50;22.00;;;;;;6310506;22;19926;-79
2024/03/10 11:41:48;;;;;;;;;;;35.40;23.10;;;;;;6309570;22;19933;-79
2024/03/10 11:44:15;;;;;;;;;;;34.40;23.50;;;;;;6337278;22;20236;-80
2024/03/10 11:46:43;;;;;;;;;;;33.60;24.50;;;;;;6310656;22;19965;-79
2024/03/10 11:49:12;;;;;;;;;;;33.10;23.70;;;;;;6310234;22;20207;-79
2024/03/10 11:51:39;;;;;;;;;;;32.60;24.60;;;;;;6336192;22;20002;-80
2024/03/10 11:54:10;;;;;;;;;;;31.70;24.90;;;;;;6310039;22;20332;-79
2024/03/10 11:56:39;;;;;;;;;;;30.90;25.60;;;;;;6337093;22;19929;-80
2024/03/10 11:59:06;;;;;;;;;;;31.00;26.70;;;;;;6309631;22;19918;-81
2024/03/10 12:01:36;;;;;;;;;;;32.00;25.40;;;;;;6310122;22;19983;-80
2024/03/10 12:04:08;;;;;;;;;;;33.30;23.20;;;;;;6283314;22;20246;-80
2024/03/10 12:06:36;;;;;;;;;;;33.80;21.90;;;;;;6309812;22;19923;-79
2024/03/10 12:09:21;;;;;;;;;;;33.30;21.00;;;;;;6310122;22;19919;-80
2024/03/10 12:11:48;;;;;;;;;;;32.70;21.80;;;;;;6337965;22;19930;-80
2024/03/10 12:14:17;;;;;;;;;;;33.50;23.40;;;;;;6310409;22;19918;-79
2024/03/10 12:16:48;;;;;;;;;;;35.00;19.90;;;;;;6310160;22;19975;-80
2024/03/10 12:19:16;;;;;;;;;;;35.90;19.30;;;;;;6309411;22;19918;-80
2024/03/10 12:21:45;;;;;;;;;;;36.50;18.90;;;;;;6337078;22;20347;-80
2024/03/10 12:24:14;;;;;;;;;;;37.30;17.50;;;;;;6310202;22;20007;-80
2024/03/10 12:26:43;;;;;;;;;;;37.90;17.00;;;;;;6337114;22;19918;-80
2024/03/10 12:29:11;;;;;;;;;;;37.60;17.10;;;;;;6337391;22;19985;-79
2024/03/10 12:31:38;;;;;;;;;;;36.80;17.00;;;;;;6337489;22;19930;-80
2024/03/10 12:34:07;;;;;;;;;;;35.90;17.30;;;;;;6337054;22;19922;-77
2024/03/10 12:36:35;;;;;;;;;;;34.70;17.90;;;;;;6310373;22;19919;-80
2024/03/10 12:39:02;;;;;;;;;;;32.80;18.60;;;;;;6310365;22;19919;-80
2024/03/10 12:41:29;;;;;;;;;;;31.00;19.80;;;;;;6338338;22;19960;-79
2024/03/10 12:43:57;;;;;;;;;;;29.30;21.00;;;;;;6312392;22;19969;-79
2024/03/10 12:46:24;;;;;;;;;;;28.00;22.50;;;;;;6312407;22;20311;-79
2024/03/10 12:48:52;;;;;;;;;;;28.00;23.10;;;;;;6312132;22;19933;-80
2024/03/10 12:51:20;;;;;;;;;;;28.10;23.80;;;;;;6312639;22;19922;-80
2024/03/10 12:53:48;;;;;;;;;;;29.40;22.90;;;;;;6311777;22;19919;-79
2024/03/10 12:56:16;;;;;;;;;;;31.10;21.30;;;;;;6339969;22;19919;-80
2024/03/10 12:58:43;;;;;;;;;;;31.20;20.50;;;;;;6339889;22;20324;-80
2024/03/10 13:01:10;;;;;;;;;;;30.60;20.30;;;;;;6313097;22;20014;-80
2024/03/10 13:03:37;;;;;;;;;;;30.30;21.30;;;;;;6313022;22;19980;-79
2024/03/10 13:06:05;;;;;;;;;;;30.70;21.00;;;;;;6339688;22;20263;-80
2024/03/10 13:08:32;;;;;;;;;;;30.80;20.60;;;;;;6312358;22;20306;-80
2024/03/10 13:10:59;;;;;;;;;;;30.20;21.30;;;;;;6339056;22;19923;-80
2024/03/10 13:13:29;;;;;;;;;;;29.30;21.60;;;;;;6339380;22;19989;-80
2024/03/10 13:15:56;;;;;;;;;;;28.30;22.60;;;;;;6338673;22;19974;-80
2024/03/10 13:18:23;;;;;;;;;;;27.20;23.10;;;;;;6338781;22;19944;-80
2024/03/10 13:20:53;;;;;;;;;;;26.60;23.90;;;;;;6311484;22;19919;-80
2024/03/10 13:23:23;;;;;;;;;;;26.10;24.40;;;;;;6314750;22;20279;-79
2024/03/10 13:25:50;;;;;;;;;;;25.70;25.20;;;;;;6312832;22;19929;-79
2024/03/10 13:28:20;;;;;;;;;;;24.90;25.60;;;;;;6338795;22;19930;-79
2024/03/10 13:30:46;;;;;;;;;;;24.50;26.20;;;;;;6312338;22;20219;-79
2024/03/10 13:33:14;;;;;;;;;;;23.80;26.80;;;;;;6339546;22;19918;-79
2024/03/10 13:35:41;;;;;;;;;;;23.30;27.20;;;;;;6339174;22;19964;-79
2024/03/10 13:38:08;;;;;;;;;;;22.80;27.60;;;;;;6338729;22;19945;-79
2024/03/10 13:40:34;;;;;;;;;;;22.40;28.30;;;;;;6309018;22;19929;-79
2024/03/10 13:43:01;;;;;;;;;;;22.10;28.70;;;;;;6311558;22;19927;-80
2024/03/10 13:45:28;;;;;;;;;;;21.90;29.00;;;;;;6338381;22;19979;-79
2024/03/10 13:48:08;;;;;;;;;;;21.70;29.20;;;;;;6312218;22;19932;-79
2024/03/10 13:50:35;;;;;;;;;;;21.50;29.40;;;;;;6311701;22;19919;-79
2024/03/10 13:53:04;;;;;;;;;;;21.40;29.70;;;;;;6311319;22;19975;-79
2024/03/10 13:55:32;;;;;;;;;;;21.20;29.90;;;;;;6311480;22;19923;-79
2024/03/10 13:57:59;;;;;;;;;;;21.10;30.20;;;;;;6337556;22;19976;-79
2024/03/10 14:00:26;;;;;;;;;;;20.90;30.30;;;;;;6311356;22;19929;-79
2024/03/10 14:02:53;;;;;;;;;;;20.90;30.60;;;;;;6311019;22;19976;-79
2024/03/10 14:05:21;;;;;;;;;;;20.90;30.40;;;;;;6338202;22;19992;-79
2024/03/10 14:07:48;;;;;;;;;;;20.90;30.90;;;;;;6311146;22;20311;-79
2024/03/10 14:10:18;;;;;;;;;;;20.80;30.80;;;;;;6337790;22;19930;-79
2024/03/10 14:12:45;;;;;;;;;;;20.70;30.80;;;;;;6311147;22;19922;-79
2024/03/10 14:15:14;;;;;;;;;;;20.60;31.40;;;;;;6310948;22;19926;-79
2024/03/10 14:17:45;;;;;;;;;;;20.70;31.20;;;;;;6337782;22;19933;-79
2024/03/10 14:20:13;;;;;;;;;;;20.70;31.60;;;;;;6337543;22;20280;-79
2024/03/10 14:22:45;;;;;;;;;;;20.80;31.60;;;;;;6338291;22;19930;-79
2024/03/10 14:25:12;;;;;;;;;;;21.10;31.50;;;;;;6308106;22;19926;-79
2024/03/10 14:27:45;;;;;;;;;;;21.50;31.10;;;;;;6311382;22;19976;-79
2024/03/10 14:30:12;;;;;;;;;;;21.90;30.70;;;;;;6338228;22;19923;-79
2024/03/10 14:32:41;;;;;;;;;;;22.40;30.30;;;;;;6337976;22;19919;-78
2024/03/10 14:35:09;;;;;;;;;;;22.70;29.70;;;;;;6310966;22;19987;-79
2024/03/10 14:37:43;;;;;;;;;;;22.70;29.60;;;;;;6338374;22;19918;-79
2024/03/10 14:40:17;;;;;;;;;;;22.60;29.90;;;;;;6311311;22;19961;-79
2024/03/10 14:42:45;;;;;;;;;;;22.60;30.00;;;;;;6310516;22;19929;-79
2024/03/10 14:45:12;;;;;;;;;;;22.40;30.00;;;;;;6311274;22;19933;-79
2024/03/10 14:47:42;;;;;;;;;;;21.70;30.70;;;;;;6310751;22;20361;-79
2024/03/10 14:50:12;;;;;;;;;;;21.20;31.60;;;;;;6310483;22;20303;-78
2024/03/10 14:52:39;;;;;;;;;;;20.70;32.30;;;;;;6311299;22;19934;-79
2024/03/10 14:55:06;;;;;;;;;;;20.30;33.20;;;;;;6337832;22;19926;-79
2024/03/10 14:57:32;;;;;;;;;;;19.80;33.70;;;;;;6337951;22;19930;-79